| time (UTC) | temp C | wind direction | speed KPH | gust KPH | rain 1hr cm | rain 24hr cm | rain mn cm | humidity % | barometer mb |
| 20260509113652 | 12 | 315 | 0.0 | 14.5 | 0.00 | 0.00 | 0.00 | 79 | 1010.3 |
| 20260509112652 | 13 | 315 | 0.0 | 14.5 | 0.00 | 0.00 | 0.00 | 77 | 1010.2 |
| 20260509111652 | 13 | 315 | 0.0 | 14.5 | 0.00 | 0.00 | 0.00 | 78 | 1010.1 |
| 20260509110652 | 13 | 315 | 0.0 | 14.5 | 0.00 | 0.00 | 0.00 | 77 | 1010.0 |
| 20260509105652 | 13 | 315 | 0.0 | 14.5 | 0.00 | 0.00 | 0.00 | 76 | 1009.9 |
| 20260509104652 | 13 | 315 | 0.0 | 14.5 | 0.00 | 0.00 | 0.00 | 74 | 1009.9 |
| 20260509103652 | 15 | 315 | 0.0 | 14.5 | 0.00 | 0.00 | 0.00 | 71 | 1009.4 |
| 20260509102652 | 15 | 315 | 0.0 | 14.5 | 0.00 | 0.00 | 0.00 | 70 | 1009.6 |
| 20260509101651 | 15 | 315 | 0.0 | 14.5 | 0.00 | 0.00 | 0.00 | 69 | 1009.5 |
| 20260509100651 | 16 | 315 | 0.0 | 14.5 | 0.00 | 0.00 | 0.00 | 67 | 1009.3 |
| 20260509095651 | 17 | 315 | 0.0 | 14.5 | 0.00 | 0.00 | 0.00 | 64 | 1009.3 |
| 20260509094651 | 18 | 315 | 0.0 | 14.5 | 0.00 | 0.00 | 0.00 | 61 | 1009.0 |
| 20260509093651 | 20 | 315 | 0.0 | 14.5 | 0.00 | 0.00 | 0.00 | 56 | 1009.0 |
| 20260509092651 | 20 | 315 | 0.0 | 14.5 | 0.00 | 0.00 | 0.00 | 54 | 1008.8 |
| 20260509091651 | 20 | 315 | 0.0 | 14.5 | 0.00 | 0.00 | 0.00 | 53 | 1008.9 |
| 20260509090651 | 21 | 315 | 0.0 | 14.5 | 0.00 | 0.00 | 0.00 | 43 | 1008.6 |
| 20260509085651 | 22 | 315 | 0.0 | 14.5 | 0.00 | 0.00 | 0.00 | 38 | 1008.9 |
| 20260509084652 | 17 | 248 | 11.3 | 14.5 | 0.00 | 0.00 | 0.00 | 57 | 1010.4 |
| 20260509083652 | 17 | 248 | 11.3 | 14.5 | 0.00 | 0.00 | 0.00 | 57 | 1010.4 |
| 20260509082652 | 17 | 248 | 11.3 | 14.5 | 0.00 | 0.00 | 0.00 | 57 | 1010.4 |
| 20260509081652 | 17 | 248 | 11.3 | 14.5 | 0.00 | 0.00 | 0.00 | 57 | 1010.4 |
| 20260509080652 | 17 | 248 | 11.3 | 14.5 | 0.00 | 0.00 | 0.00 | 57 | 1010.4 |
| 20260509075652 | 17 | 248 | 11.3 | 14.5 | 0.00 | 0.00 | 0.00 | 57 | 1010.4 |
| 20260509074652 | 17 | 248 | 11.3 | 14.5 | 0.00 | 0.00 | 0.00 | 57 | 1010.4 |
| 20260509073652 | 17 | 248 | 11.3 | 14.5 | 0.00 | 0.00 | 0.00 | 57 | 1010.4 |
| 20260509072652 | 17 | 248 | 11.3 | 14.5 | 0.00 | 0.00 | 0.00 | 57 | 1010.4 |
| 20260509071652 | 17 | 248 | 11.3 | 14.5 | 0.00 | 0.00 | 0.00 | 57 | 1010.4 |
| 20260509070652 | 17 | 248 | 11.3 | 14.5 | 0.00 | 0.00 | 0.00 | 57 | 1010.4 |
| 20260509065652 | 17 | 248 | 11.3 | 14.5 | 0.00 | 0.00 | 0.00 | 57 | 1010.4 |
| 20260509064652 | 17 | 248 | 11.3 | 14.5 | 0.00 | 0.00 | 0.00 | 57 | 1010.4 |
| 20260509063652 | 17 | 248 | 11.3 | 14.5 | 0.00 | 0.00 | 0.00 | 57 | 1010.4 |
| 20260509062652 | 17 | 248 | 11.3 | 14.5 | 0.00 | 0.00 | 0.00 | 57 | 1010.4 |
| 20260509061651 | 17 | 248 | 11.3 | 14.5 | 0.00 | 0.00 | 0.00 | 57 | 1010.4 |
| 20260509060651 | 17 | 248 | 11.3 | 14.5 | 0.00 | 0.00 | 0.00 | 57 | 1010.4 |
| 20260509055651 | 17 | 248 | 11.3 | 14.5 | 0.00 | 0.00 | 0.00 | 57 | 1010.4 |
| 20260509054651 | 17 | 248 | 11.3 | 14.5 | 0.00 | 0.00 | 0.00 | 57 | 1010.4 |
| 20260509053651 | 17 | 248 | 11.3 | 14.5 | 0.00 | 0.00 | 0.00 | 57 | 1010.4 |
| 20260509052651 | 17 | 248 | 11.3 | 14.5 | 0.00 | 0.00 | 0.00 | 57 | 1010.4 |
| 20260509051651 | 17 | 248 | 11.3 | 14.5 | 0.00 | 0.00 | 0.00 | 57 | 1010.4 |
| 20260509050651 | 17 | 248 | 11.3 | 14.5 | 0.00 | 0.00 | 0.00 | 57 | 1010.4 |
| 20260509045651 | 17 | 248 | 11.3 | 14.5 | 0.00 | 0.00 | 0.00 | 57 | 1010.4 |
| 20260509044651 | 17 | 248 | 11.3 | 14.5 | 0.00 | 0.00 | 0.00 | 57 | 1010.4 |
| 20260509043651 | 17 | 248 | 11.3 | 14.5 | 0.00 | 0.00 | 0.00 | 57 | 1010.4 |
| 20260509042651 | 17 | 248 | 11.3 | 14.5 | 0.00 | 0.00 | 0.00 | 57 | 1010.4 |
| 20260509041653 | 17 | 248 | 11.3 | 14.5 | 0.00 | 0.00 | 0.00 | 57 | 1010.4 |
| 20260509040652 | 17 | 248 | 11.3 | 14.5 | 0.00 | 0.00 | 0.00 | 57 | 1010.4 |
| 20260509035652 | 17 | 248 | 11.3 | 14.5 | 0.00 | 0.00 | 0.00 | 57 | 1010.4 |
| 20260509034652 | 17 | 248 | 11.3 | 14.5 | 0.00 | 0.00 | 0.00 | 57 | 1010.4 |
| 20260509033652 | 17 | 248 | 11.3 | 14.5 | 0.00 | 0.00 | 0.00 | 57 | 1010.4 |
| 20260509032652 | 17 | 248 | 11.3 | 14.5 | 0.00 | 0.00 | 0.00 | 57 | 1010.4 |
| 20260509031652 | 17 | 248 | 11.3 | 14.5 | 0.00 | 0.00 | 0.00 | 57 | 1010.4 |
| 20260509030652 | 17 | 248 | 11.3 | 14.5 | 0.00 | 0.00 | 0.00 | 57 | 1010.4 |
| 20260509025652 | 17 | 248 | 11.3 | 14.5 | 0.00 | 0.00 | 0.00 | 57 | 1010.4 |
| 20260509024652 | 17 | 248 | 11.3 | 14.5 | 0.00 | 0.00 | 0.00 | 57 | 1010.4 |
| 20260509023652 | 17 | 248 | 11.3 | 14.5 | 0.00 | 0.00 | 0.00 | 57 | 1010.4 |
| 20260509022652 | 17 | 248 | 11.3 | 14.5 | 0.00 | 0.00 | 0.00 | 57 | 1010.4 |
| 20260509021652 | 17 | 248 | 11.3 | 14.5 | 0.00 | 0.00 | 0.00 | 57 | 1010.4 |
| 20260509020651 | 17 | 168 | 4.8 | 14.5 | 0.00 | 0.00 | 0.00 | 55 | 1010.6 |
| 20260509015651 | 18 | 118 | 1.6 | 14.5 | 0.00 | 0.00 | 0.00 | 55 | 1010.7 |
| 20260509014651 | 18 | 87 | 1.6 | 14.5 | 0.00 | 0.00 | 0.00 | 55 | 1010.9 |
| 20260509013651 | 18 | 0 | 0.0 | 14.5 | 0.00 | 0.00 | 0.00 | 57 | 1010.7 |
| 20260509012651 | 18 | 135 | 0.0 | 14.5 | 0.00 | 0.00 | 0.00 | 55 | 1010.9 |
| 20260509011651 | 17 | 248 | 0.0 | 14.5 | 0.00 | 0.00 | 0.00 | 55 | 1010.9 |
| 20260509010651 | 17 | 116 | 3.2 | 14.5 | 0.00 | 0.00 | 0.00 | 53 | 1010.9 |
| 20260509005651 | 17 | 33 | 1.6 | 14.5 | 0.00 | 0.00 | 0.00 | 56 | 1010.8 |
| 20260509004651 | 17 | 244 | 3.2 | 14.5 | 0.00 | 0.00 | 0.00 | 57 | 1011.1 |
| 20260509003651 | 17 | 297 | 3.2 | 14.5 | 0.00 | 0.00 | 0.00 | 58 | 1010.9 |
| 20260509002651 | 17 | 116 | 3.2 | 14.5 | 0.00 | 0.00 | 0.00 | 58 | 1011.0 |
| 20260509001651 | 17 | 51 | 1.6 | 14.5 | 0.00 | 0.00 | 0.00 | 59 | 1010.7 |
| 20260509000653 | 17 | 90 | 1.6 | 14.5 | 0.00 | 0.00 | 0.00 | 61 | 1010.8 |
| 20260508235652 | 17 | 45 | 1.6 | 14.5 | 0.00 | 0.00 | 0.00 | 62 | 1010.7 |
| 20260508234652 | 16 | 0 | 1.6 | 14.5 | 0.00 | 0.00 | 0.00 | 61 | 1010.5 |
| 20260508233652 | 16 | 294 | 0.0 | 14.5 | 0.00 | 0.00 | 0.00 | 62 | 1010.7 |
| 20260508232652 | 16 | 155 | 0.0 | 14.5 | 0.00 | 0.00 | 0.00 | 61 | 1010.9 |
| 20260508231652 | 16 | 62 | 1.6 | 14.5 | 0.00 | 0.00 | 0.00 | 61 | 1010.6 |
| 20260508230652 | 16 | 270 | 1.6 | 14.5 | 0.00 | 0.00 | 0.00 | 61 | 1010.7 |
| 20260508225652 | 15 | 219 | 1.6 | 14.5 | 0.00 | 0.00 | 0.00 | 67 | 1010.7 |
| 20260508224652 | 15 | 28 | 0.0 | 14.5 | 0.00 | 0.00 | 0.00 | 67 | 1010.3 |
| 20260508223652 | 15 | 30 | 1.6 | 14.5 | 0.00 | 0.00 | 0.00 | 68 | 1010.2 |
| 20260508222652 | 15 | 75 | 1.6 | 14.5 | 0.00 | 0.00 | 0.00 | 67 | 1010.2 |
| 20260508221652 | 15 | 203 | 0.0 | 14.5 | 0.00 | 0.00 | 0.00 | 70 | 1010.1 |
| 20260508220652 | 14 | 90 | 1.6 | 14.5 | 0.00 | 0.00 | 0.00 | 70 | 1009.9 |
| 20260508215651 | 13 | 346 | 0.0 | 14.5 | 0.00 | 0.00 | 0.00 | 72 | 1010.0 |
| 20260508214651 | 13 | 3 | 1.6 | 14.5 | 0.00 | 0.00 | 0.00 | 73 | 1010.0 |
| 20260508213651 | 13 | 68 | 0.0 | 14.5 | 0.00 | 0.00 | 0.00 | 73 | 1010.1 |
| 20260508212651 | 13 | 3 | 0.0 | 14.5 | 0.00 | 0.00 | 0.00 | 74 | 1009.9 |
| 20260508211651 | 13 | 0 | 0.0 | 14.5 | 0.00 | 0.00 | 0.00 | 74 | 1009.7 |
| 20260508210651 | 13 | 23 | 0.0 | 14.5 | 0.00 | 0.00 | 0.00 | 74 | 1009.5 |
| 20260508205651 | 13 | 86 | 0.0 | 14.5 | 0.00 | 0.00 | 0.00 | 74 | 1009.4 |
| 20260508204651 | 13 | 318 | 0.0 | 14.5 | 0.00 | 0.00 | 0.00 | 73 | 1009.3 |
| 20260508203651 | 13 | 270 | 1.6 | 14.5 | 0.00 | 0.00 | 0.00 | 72 | 1009.1 |
| 20260508202651 | 13 | 135 | 0.0 | 14.5 | 0.00 | 0.00 | 0.00 | 71 | 1009.2 |
| 20260508201651 | 13 | 338 | 1.6 | 14.5 | 0.00 | 0.00 | 0.00 | 72 | 1009.1 |
| 20260508200653 | 13 | 338 | 1.6 | 14.5 | 0.00 | 0.00 | 0.00 | 72 | 1008.8 |
| 20260508195652 | 13 | 315 | 4.8 | 14.5 | 0.00 | 0.00 | 0.00 | 71 | 1008.8 |
| 20260508194652 | 13 | 297 | 1.6 | 14.5 | 0.00 | 0.00 | 0.00 | 71 | 1008.6 |
| 20260508193652 | 13 | 248 | 0.0 | 14.5 | 0.00 | 0.00 | 0.00 | 71 | 1008.6 |
| 20260508192652 | 13 | 264 | 0.0 | 14.5 | 0.00 | 0.00 | 0.00 | 71 | 1008.1 |
| 20260508191652 | 13 | 261 | 1.6 | 14.5 | 0.00 | 0.00 | 0.00 | 72 | 1008.0 |
| 20260508190652 | 13 | 237 | 1.6 | 14.5 | 0.00 | 0.00 | 0.00 | 73 | 1007.9 |
| 20260508185652 | 13 | 68 | 0.0 | 14.5 | 0.00 | 0.00 | 0.00 | 74 | 1007.8 |
| 20260508184652 | 13 | 109 | 3.2 | 14.5 | 0.00 | 0.00 | 0.00 | 72 | 1007.7 |
| 20260508183652 | 13 | 256 | 1.6 | 14.5 | 0.00 | 0.00 | 0.00 | 70 | 1007.5 |
| 20260508182652 | 13 | 118 | 1.6 | 14.5 | 0.00 | 0.00 | 0.00 | 70 | 1007.2 |
| 20260508181652 | 14 | 270 | 3.2 | 14.5 | 0.00 | 0.00 | 0.00 | 70 | 1007.4 |
| 20260508180651 | 13 | 60 | 3.2 | 12.9 | 0.00 | 0.00 | 0.00 | 70 | 1007.1 |
| 20260508175651 | 13 | 283 | 1.6 | 12.9 | 0.00 | 0.00 | 0.00 | 70 | 1007.1 |
| 20260508174651 | 14 | 270 | 0.0 | 12.9 | 0.00 | 0.00 | 0.00 | 69 | 1007.1 |
| 20260508173651 | 13 | 268 | 0.0 | 9.7 | 0.00 | 0.00 | 0.00 | 70 | 1006.9 |
| 20260508172651 | 13 | 181 | 0.0 | 9.7 | 0.00 | 0.00 | 0.00 | 72 | 1006.9 |
| 20260508171651 | 13 | 135 | 0.0 | 9.7 | 0.00 | 0.00 | 0.00 | 73 | 1007.0 |
| 20260508170651 | 13 | 135 | 0.0 | 9.7 | 0.00 | 0.00 | 0.00 | 73 | 1006.6 |
| 20260508165651 | 14 | 135 | 0.0 | 9.7 | 0.00 | 0.00 | 0.00 | 72 | 1006.9 |
| 20260508164651 | 14 | 0 | 0.0 | 9.7 | 0.00 | 0.00 | 0.00 | 74 | 1006.7 |
| 20260508163651 | 14 | 0 | 0.0 | 9.7 | 0.00 | 0.00 | 0.00 | 72 | 1006.9 |
| 20260508162653 | 14 | 338 | 3.2 | 9.7 | 0.00 | 0.00 | 0.00 | 73 | 1006.6 |
| 20260508161652 | 14 | 298 | 0.0 | 9.7 | 0.00 | 0.00 | 0.00 | 72 | 1006.6 |
| 20260508160652 | 15 | 253 | 1.6 | 9.7 | 0.00 | 0.00 | 0.00 | 69 | 1006.6 |
| 20260508155652 | 15 | 243 | 1.6 | 9.7 | 0.00 | 0.00 | 0.00 | 67 | 1006.6 |
| 20260508154652 | 15 | 224 | 0.0 | 9.7 | 0.00 | 0.00 | 0.00 | 66 | 1006.6 |
| 20260508153652 | 15 | 42 | 1.6 | 9.7 | 0.00 | 0.00 | 0.00 | 64 | 1006.3 |
| 20260508152652 | 15 | 314 | 1.6 | 9.7 | 0.00 | 0.00 | 0.00 | 67 | 1006.3 |
| 20260508151652 | 15 | 203 | 1.6 | 9.7 | 0.00 | 0.00 | 0.00 | 69 | 1006.3 |
| 20260508150652 | 15 | 180 | 0.0 | 0.0 | 0.00 | 0.00 | 0.00 | 71 | 1006.4 |
| 20260508145652 | 15 | 225 | 0.0 | 29.0 | 0.00 | 0.00 | 0.00 | 66 | 1006.4 |
| 20260508144652 | 15 | 216 | 0.0 | 29.0 | 0.00 | 0.00 | 0.00 | 67 | 1006.4 |
| 20260508143652 | 15 | 270 | 0.0 | 29.0 | 0.00 | 0.00 | 0.00 | 68 | 1006.3 |
| 20260508142652 | 15 | 270 | 0.0 | 29.0 | 0.00 | 0.00 | 0.00 | 69 | 1006.2 |
| 20260508141652 | 15 | 270 | 0.0 | 29.0 | 0.00 | 0.00 | 0.00 | 71 | 1006.1 |
| 20260508140652 | 14 | 315 | 0.0 | 29.0 | 0.00 | 0.00 | 0.00 | 71 | 1005.8 |
| 20260508135652 | 15 | 315 | 0.0 | 29.0 | 0.00 | 0.00 | 0.00 | 71 | 1005.8 |
| 20260508134651 | 15 | 315 | 0.0 | 29.0 | 0.00 | 0.00 | 0.00 | 69 | 1006.1 |
| 20260508133651 | 15 | 315 | 0.0 | 29.0 | 0.00 | 0.00 | 0.00 | 67 | 1005.9 |
| 20260508132651 | 15 | 293 | 1.6 | 29.0 | 0.00 | 0.00 | 0.00 | 66 | 1006.1 |
| 20260508131651 | 15 | 314 | 0.0 | 29.0 | 0.00 | 0.00 | 0.00 | 67 | 1006.0 |
| 20260508130651 | 15 | 61 | 0.0 | 29.0 | 0.00 | 0.00 | 0.00 | 66 | 1006.0 |
| 20260508125651 | 16 | 50 | 0.0 | 29.0 | 0.00 | 0.00 | 0.00 | 65 | 1005.9 |
| 20260508124651 | 16 | 90 | 1.6 | 29.0 | 0.00 | 0.00 | 0.00 | 65 | 1005.8 |
| 20260508123651 | 16 | 293 | 1.6 | 29.0 | 0.00 | 0.00 | 0.00 | 64 | 1005.6 |
| 20260508122651 | 16 | 15 | 3.2 | 29.0 | 0.00 | 0.00 | 0.00 | 66 | 1005.4 |
| 20260508121653 | 16 | 51 | 1.6 | 29.0 | 0.00 | 0.00 | 0.00 | 68 | 1005.3 |
| 20260508120652 | 16 | 293 | 0.0 | 29.0 | 0.00 | 0.00 | 0.00 | 68 | 1005.0 |
| 20260508115652 | 16 | 282 | 1.6 | 29.0 | 0.00 | 0.00 | 0.00 | 71 | 1004.8 |
| 20260508114652 | 16 | 73 | 1.6 | 29.0 | 0.00 | 0.00 | 0.00 | 70 | 1004.5 |